sensor_id;sensor_type;location;lat;lon;timestamp;P1;durP1;ratioP1;P2;durP2;ratioP2
18082;SDS011;9168;51.194;6.840;2022-12-18T00:01:56;21.53;;;9.17;;
18082;SDS011;9168;51.194;6.840;2022-12-18T00:04:25;20.07;;;9.13;;
18082;SDS011;9168;51.194;6.840;2022-12-18T00:06:52;24.50;;;8.67;;
18082;SDS011;9168;51.194;6.840;2022-12-18T00:09:20;18.83;;;8.40;;
18082;SDS011;9168;51.194;6.840;2022-12-18T00:11:47;22.30;;;8.07;;
18082;SDS011;9168;51.194;6.840;2022-12-18T00:14:15;22.57;;;8.27;;
18082;SDS011;9168;51.194;6.840;2022-12-18T00:16:43;18.97;;;8.07;;
18082;SDS011;9168;51.194;6.840;2022-12-18T00:19:11;18.23;;;7.70;;
18082;SDS011;9168;51.194;6.840;2022-12-18T00:21:39;18.80;;;8.70;;
18082;SDS011;9168;51.194;6.840;2022-12-18T00:24:06;24.50;;;8.33;;
18082;SDS011;9168;51.194;6.840;2022-12-18T00:26:34;21.80;;;8.73;;
18082;SDS011;9168;51.194;6.840;2022-12-18T00:29:03;23.03;;;9.00;;
18082;SDS011;9168;51.194;6.840;2022-12-18T00:31:33;21.67;;;8.50;;
18082;SDS011;9168;51.194;6.840;2022-12-18T00:34:00;17.30;;;8.30;;
18082;SDS011;9168;51.194;6.840;2022-12-18T00:36:27;24.37;;;9.23;;
18082;SDS011;9168;51.194;6.840;2022-12-18T00:38:56;19.07;;;7.80;;
18082;SDS011;9168;51.194;6.840;2022-12-18T00:41:26;18.53;;;8.60;;
18082;SDS011;9168;51.194;6.840;2022-12-18T00:44:11;18.10;;;8.17;;
18082;SDS011;9168;51.194;6.840;2022-12-18T00:46:41;22.93;;;8.90;;
18082;SDS011;9168;51.194;6.840;2022-12-18T00:49:09;17.80;;;7.90;;
18082;SDS011;9168;51.194;6.840;2022-12-18T00:51:36;20.17;;;8.27;;
18082;SDS011;9168;51.194;6.840;2022-12-18T00:54:05;19.50;;;7.73;;
18082;SDS011;9168;51.194;6.840;2022-12-18T00:56:31;19.27;;;8.20;;
18082;SDS011;9168;51.194;6.840;2022-12-18T00:58:58;22.97;;;9.30;;
18082;SDS011;9168;51.194;6.840;2022-12-18T01:01:25;17.77;;;7.80;;
18082;SDS011;9168;51.194;6.840;2022-12-18T01:03:53;18.30;;;7.73;;
18082;SDS011;9168;51.194;6.840;2022-12-18T01:06:20;19.20;;;8.43;;
18082;SDS011;9168;51.194;6.840;2022-12-18T01:08:47;25.70;;;8.57;;
18082;SDS011;9168;51.194;6.840;2022-12-18T01:11:15;20.20;;;8.40;;
18082;SDS011;9168;51.194;6.840;2022-12-18T01:13:44;26.43;;;8.53;;
18082;SDS011;9168;51.194;6.840;2022-12-18T01:16:11;18.47;;;8.20;;
18082;SDS011;9168;51.194;6.840;2022-12-18T01:18:39;21.13;;;8.63;;
18082;SDS011;9168;51.194;6.840;2022-12-18T01:21:08;20.83;;;8.00;;
18082;SDS011;9168;51.194;6.840;2022-12-18T01:23:36;20.17;;;8.50;;
18082;SDS011;9168;51.194;6.840;2022-12-18T01:26:04;22.27;;;8.83;;
18082;SDS011;9168;51.194;6.840;2022-12-18T01:28:32;18.67;;;8.00;;
18082;SDS011;9168;51.194;6.840;2022-12-18T01:31:08;17.73;;;7.60;;
18082;SDS011;9168;51.194;6.840;2022-12-18T01:33:36;20.50;;;8.17;;
18082;SDS011;9168;51.194;6.840;2022-12-18T01:36:04;17.67;;;7.90;;
18082;SDS011;9168;51.194;6.840;2022-12-18T01:38:32;18.47;;;8.13;;
18082;SDS011;9168;51.194;6.840;2022-12-18T01:40:59;27.27;;;8.97;;
18082;SDS011;9168;51.194;6.840;2022-12-18T01:43:40;21.10;;;8.60;;
18082;SDS011;9168;51.194;6.840;2022-12-18T01:46:12;27.37;;;9.20;;
18082;SDS011;9168;51.194;6.840;2022-12-18T01:48:39;18.37;;;8.13;;
18082;SDS011;9168;51.194;6.840;2022-12-18T01:51:07;19.73;;;8.57;;
18082;SDS011;9168;51.194;6.840;2022-12-18T01:53:40;18.93;;;9.00;;
18082;SDS011;9168;51.194;6.840;2022-12-18T01:56:08;20.20;;;7.90;;
18082;SDS011;9168;51.194;6.840;2022-12-18T01:58:40;23.27;;;9.23;;
18082;SDS011;9168;51.194;6.840;2022-12-18T02:01:12;22.77;;;8.93;;
18082;SDS011;9168;51.194;6.840;2022-12-18T02:03:40;18.90;;;7.80;;
18082;SDS011;9168;51.194;6.840;2022-12-18T02:06:10;21.50;;;7.97;;
18082;SDS011;9168;51.194;6.840;2022-12-18T02:08:43;18.00;;;7.83;;
18082;SDS011;9168;51.194;6.840;2022-12-18T02:11:22;18.17;;;8.50;;
18082;SDS011;9168;51.194;6.840;2022-12-18T02:14:00;17.30;;;7.73;;
18082;SDS011;9168;51.194;6.840;2022-12-18T02:16:39;23.90;;;8.70;;
18082;SDS011;9168;51.194;6.840;2022-12-18T02:19:15;19.87;;;7.90;;
18082;SDS011;9168;51.194;6.840;2022-12-18T02:22:06;19.30;;;8.40;;
18082;SDS011;9168;51.194;6.840;2022-12-18T02:24:57;19.67;;;8.07;;
18082;SDS011;9168;51.194;6.840;2022-12-18T02:27:32;18.43;;;8.40;;
18082;SDS011;9168;51.194;6.840;2022-12-18T02:30:02;24.53;;;9.30;;
18082;SDS011;9168;51.194;6.840;2022-12-18T02:32:32;23.83;;;9.37;;
18082;SDS011;9168;51.194;6.840;2022-12-18T02:35:04;19.50;;;8.67;;
18082;SDS011;9168;51.194;6.840;2022-12-18T02:37:33;22.13;;;8.20;;
18082;SDS011;9168;51.194;6.840;2022-12-18T02:40:02;20.83;;;8.90;;
18082;SDS011;9168;51.194;6.840;2022-12-18T02:42:30;22.30;;;8.97;;
18082;SDS011;9168;51.194;6.840;2022-12-18T02:44:59;22.70;;;9.17;;
18082;SDS011;9168;51.194;6.840;2022-12-18T02:47:28;20.20;;;9.20;;
18082;SDS011;9168;51.194;6.840;2022-12-18T02:50:00;25.97;;;9.00;;
18082;SDS011;9168;51.194;6.840;2022-12-18T02:52:34;20.53;;;9.13;;
18082;SDS011;9168;51.194;6.840;2022-12-18T02:55:11;17.87;;;8.17;;
18082;SDS011;9168;51.194;6.840;2022-12-18T02:57:47;17.90;;;7.67;;
18082;SDS011;9168;51.194;6.840;2022-12-18T03:00:20;21.57;;;8.70;;
18082;SDS011;9168;51.194;6.840;2022-12-18T03:02:51;19.87;;;8.37;;
18082;SDS011;9168;51.194;6.840;2022-12-18T03:05:23;21.20;;;8.50;;
18082;SDS011;9168;51.194;6.840;2022-12-18T03:07:56;22.27;;;8.57;;
18082;SDS011;9168;51.194;6.840;2022-12-18T03:10:29;23.67;;;8.23;;
18082;SDS011;9168;51.194;6.840;2022-12-18T03:13:02;21.67;;;7.77;;
18082;SDS011;9168;51.194;6.840;2022-12-18T03:15:34;20.90;;;8.27;;
18082;SDS011;9168;51.194;6.840;2022-12-18T03:18:04;19.27;;;8.43;;
18082;SDS011;9168;51.194;6.840;2022-12-18T03:20:37;16.37;;;7.67;;
18082;SDS011;9168;51.194;6.840;2022-12-18T03:23:09;18.03;;;8.20;;
18082;SDS011;9168;51.194;6.840;2022-12-18T03:25:39;21.27;;;8.13;;
18082;SDS011;9168;51.194;6.840;2022-12-18T03:28:10;17.27;;;7.43;;
18082;SDS011;9168;51.194;6.840;2022-12-18T03:30:40;20.13;;;8.10;;
18082;SDS011;9168;51.194;6.840;2022-12-18T03:33:10;16.17;;;7.73;;
18082;SDS011;9168;51.194;6.840;2022-12-18T03:35:42;20.87;;;8.03;;
18082;SDS011;9168;51.194;6.840;2022-12-18T03:38:10;20.30;;;8.23;;
18082;SDS011;9168;51.194;6.840;2022-12-18T03:40:41;22.83;;;8.60;;
18082;SDS011;9168;51.194;6.840;2022-12-18T03:43:18;20.93;;;8.80;;
18082;SDS011;9168;51.194;6.840;2022-12-18T03:45:51;21.77;;;7.83;;
18082;SDS011;9168;51.194;6.840;2022-12-18T03:48:25;17.67;;;7.83;;
18082;SDS011;9168;51.194;6.840;2022-12-18T03:50:56;19.43;;;7.87;;
18082;SDS011;9168;51.194;6.840;2022-12-18T03:53:28;21.77;;;8.03;;
18082;SDS011;9168;51.194;6.840;2022-12-18T03:56:02;20.87;;;8.67;;
18082;SDS011;9168;51.194;6.840;2022-12-18T03:58:33;20.13;;;8.13;;
18082;SDS011;9168;51.194;6.840;2022-12-18T04:01:03;19.57;;;7.77;;
18082;SDS011;9168;51.194;6.840;2022-12-18T04:03:33;19.43;;;8.27;;
18082;SDS011;9168;51.194;6.840;2022-12-18T04:06:01;19.53;;;7.93;;
18082;SDS011;9168;51.194;6.840;2022-12-18T04:08:29;18.83;;;7.77;;
18082;SDS011;9168;51.194;6.840;2022-12-18T04:10:56;18.07;;;7.10;;
18082;SDS011;9168;51.194;6.840;2022-12-18T04:13:23;20.80;;;8.27;;
18082;SDS011;9168;51.194;6.840;2022-12-18T04:15:52;19.03;;;8.07;;
18082;SDS011;9168;51.194;6.840;2022-12-18T04:18:19;20.93;;;8.40;;
18082;SDS011;9168;51.194;6.840;2022-12-18T04:20:46;19.10;;;8.20;;
18082;SDS011;9168;51.194;6.840;2022-12-18T04:23:13;18.73;;;7.90;;
18082;SDS011;9168;51.194;6.840;2022-12-18T04:25:40;20.77;;;8.70;;
18082;SDS011;9168;51.194;6.840;2022-12-18T04:28:07;18.87;;;7.70;;
18082;SDS011;9168;51.194;6.840;2022-12-18T04:30:34;19.57;;;8.47;;
18082;SDS011;9168;51.194;6.840;2022-12-18T04:33:02;19.97;;;8.27;;
18082;SDS011;9168;51.194;6.840;2022-12-18T04:35:29;19.33;;;7.43;;
18082;SDS011;9168;51.194;6.840;2022-12-18T04:37:56;17.87;;;7.70;;
18082;SDS011;9168;51.194;6.840;2022-12-18T04:40:23;22.83;;;8.20;;
18082;SDS011;9168;51.194;6.840;2022-12-18T04:42:50;17.53;;;8.07;;
18082;SDS011;9168;51.194;6.840;2022-12-18T04:45:17;17.83;;;7.60;;
18082;SDS011;9168;51.194;6.840;2022-12-18T04:47:44;21.60;;;8.77;;
18082;SDS011;9168;51.194;6.840;2022-12-18T04:50:12;17.03;;;7.30;;
18082;SDS011;9168;51.194;6.840;2022-12-18T04:52:39;17.37;;;7.70;;
18082;SDS011;9168;51.194;6.840;2022-12-18T04:55:06;19.30;;;7.57;;
18082;SDS011;9168;51.194;6.840;2022-12-18T04:57:33;19.60;;;9.00;;
18082;SDS011;9168;51.194;6.840;2022-12-18T05:00:00;18.07;;;7.23;;
18082;SDS011;9168;51.194;6.840;2022-12-18T05:02:27;20.40;;;7.97;;
18082;SDS011;9168;51.194;6.840;2022-12-18T05:04:53;20.23;;;7.63;;
18082;SDS011;9168;51.194;6.840;2022-12-18T05:07:22;20.53;;;8.97;;
18082;SDS011;9168;51.194;6.840;2022-12-18T05:09:48;25.67;;;8.43;;
18082;SDS011;9168;51.194;6.840;2022-12-18T05:12:15;18.50;;;7.63;;
18082;SDS011;9168;51.194;6.840;2022-12-18T05:14:42;21.60;;;7.60;;
18082;SDS011;9168;51.194;6.840;2022-12-18T05:17:09;18.83;;;8.80;;
18082;SDS011;9168;51.194;6.840;2022-12-18T05:19:36;18.70;;;7.50;;
18082;SDS011;9168;51.194;6.840;2022-12-18T05:22:07;18.40;;;8.17;;
18082;SDS011;9168;51.194;6.840;2022-12-18T05:24:36;21.53;;;7.97;;
18082;SDS011;9168;51.194;6.840;2022-12-18T05:27:03;19.77;;;8.70;;
18082;SDS011;9168;51.194;6.840;2022-12-18T05:29:30;17.63;;;8.20;;
18082;SDS011;9168;51.194;6.840;2022-12-18T05:31:57;19.10;;;7.40;;
18082;SDS011;9168;51.194;6.840;2022-12-18T05:34:24;22.63;;;8.30;;
18082;SDS011;9168;51.194;6.840;2022-12-18T05:36:50;18.87;;;8.47;;
18082;SDS011;9168;51.194;6.840;2022-12-18T05:39:17;16.33;;;7.60;;
18082;SDS011;9168;51.194;6.840;2022-12-18T05:41:46;19.13;;;7.73;;
18082;SDS011;9168;51.194;6.840;2022-12-18T05:44:12;20.80;;;8.27;;
18082;SDS011;9168;51.194;6.840;2022-12-18T05:46:39;16.80;;;6.93;;
18082;SDS011;9168;51.194;6.840;2022-12-18T05:49:06;18.57;;;7.53;;
18082;SDS011;9168;51.194;6.840;2022-12-18T05:51:33;18.73;;;8.07;;
18082;SDS011;9168;51.194;6.840;2022-12-18T05:54:00;18.23;;;7.57;;
18082;SDS011;9168;51.194;6.840;2022-12-18T05:56:27;18.73;;;7.93;;
18082;SDS011;9168;51.194;6.840;2022-12-18T05:58:55;23.33;;;9.23;;
18082;SDS011;9168;51.194;6.840;2022-12-18T06:01:24;18.10;;;8.03;;
18082;SDS011;9168;51.194;6.840;2022-12-18T06:03:52;17.70;;;7.67;;
18082;SDS011;9168;51.194;6.840;2022-12-18T06:06:20;17.93;;;8.20;;
18082;SDS011;9168;51.194;6.840;2022-12-18T06:08:48;17.27;;;8.10;;
18082;SDS011;9168;51.194;6.840;2022-12-18T06:11:17;18.27;;;8.07;;
18082;SDS011;9168;51.194;6.840;2022-12-18T06:13:45;18.50;;;7.57;;
18082;SDS011;9168;51.194;6.840;2022-12-18T06:16:13;17.47;;;6.90;;
18082;SDS011;9168;51.194;6.840;2022-12-18T06:18:40;19.87;;;8.07;;
18082;SDS011;9168;51.194;6.840;2022-12-18T06:21:07;18.17;;;7.63;;
18082;SDS011;9168;51.194;6.840;2022-12-18T06:23:34;19.50;;;8.17;;
18082;SDS011;9168;51.194;6.840;2022-12-18T06:26:03;19.87;;;7.07;;
18082;SDS011;9168;51.194;6.840;2022-12-18T06:28:31;18.77;;;7.90;;
18082;SDS011;9168;51.194;6.840;2022-12-18T06:30:58;17.73;;;7.83;;
18082;SDS011;9168;51.194;6.840;2022-12-18T06:33:27;17.40;;;7.40;;
18082;SDS011;9168;51.194;6.840;2022-12-18T06:35:54;18.53;;;7.03;;
18082;SDS011;9168;51.194;6.840;2022-12-18T06:38:25;17.30;;;7.83;;
18082;SDS011;9168;51.194;6.840;2022-12-18T06:40:52;18.60;;;7.03;;
18082;SDS011;9168;51.194;6.840;2022-12-18T06:43:19;19.53;;;8.07;;
18082;SDS011;9168;51.194;6.840;2022-12-18T06:45:46;16.57;;;7.87;;
18082;SDS011;9168;51.194;6.840;2022-12-18T06:48:17;17.47;;;7.30;;
18082;SDS011;9168;51.194;6.840;2022-12-18T06:50:45;19.33;;;7.90;;
18082;SDS011;9168;51.194;6.840;2022-12-18T06:53:13;19.43;;;7.90;;
18082;SDS011;9168;51.194;6.840;2022-12-18T06:55:40;22.57;;;8.10;;
18082;SDS011;9168;51.194;6.840;2022-12-18T06:58:07;20.10;;;8.47;;
18082;SDS011;9168;51.194;6.840;2022-12-18T07:00:34;21.53;;;8.60;;
18082;SDS011;9168;51.194;6.840;2022-12-18T07:03:01;17.33;;;8.10;;
18082;SDS011;9168;51.194;6.840;2022-12-18T07:05:27;17.93;;;8.40;;
18082;SDS011;9168;51.194;6.840;2022-12-18T07:07:56;17.10;;;7.63;;
18082;SDS011;9168;51.194;6.840;2022-12-18T07:10:23;17.47;;;8.37;;
18082;SDS011;9168;51.194;6.840;2022-12-18T07:12:50;21.67;;;8.83;;
18082;SDS011;9168;51.194;6.840;2022-12-18T07:15:17;18.47;;;8.57;;
18082;SDS011;9168;51.194;6.840;2022-12-18T07:17:44;21.97;;;8.47;;
18082;SDS011;9168;51.194;6.840;2022-12-18T07:20:10;19.83;;;8.40;;
18082;SDS011;9168;51.194;6.840;2022-12-18T07:22:37;19.37;;;8.50;;
18082;SDS011;9168;51.194;6.840;2022-12-18T07:25:06;26.30;;;8.53;;
18082;SDS011;9168;51.194;6.840;2022-12-18T07:27:34;18.00;;;7.60;;
18082;SDS011;9168;51.194;6.840;2022-12-18T07:30:00;20.67;;;8.27;;
18082;SDS011;9168;51.194;6.840;2022-12-18T07:32:27;19.97;;;8.63;;
18082;SDS011;9168;51.194;6.840;2022-12-18T07:34:56;19.07;;;7.40;;
18082;SDS011;9168;51.194;6.840;2022-12-18T07:37:22;18.50;;;8.37;;
18082;SDS011;9168;51.194;6.840;2022-12-18T07:39:49;18.37;;;7.63;;
18082;SDS011;9168;51.194;6.840;2022-12-18T07:42:18;17.67;;;8.03;;
18082;SDS011;9168;51.194;6.840;2022-12-18T07:44:57;22.40;;;7.67;;
18082;SDS011;9168;51.194;6.840;2022-12-18T07:47:23;22.97;;;7.97;;
18082;SDS011;9168;51.194;6.840;2022-12-18T07:49:51;18.33;;;7.97;;
18082;SDS011;9168;51.194;6.840;2022-12-18T07:52:17;19.17;;;7.97;;
18082;SDS011;9168;51.194;6.840;2022-12-18T07:54:44;19.70;;;8.30;;
18082;SDS011;9168;51.194;6.840;2022-12-18T07:57:13;20.70;;;8.10;;
18082;SDS011;9168;51.194;6.840;2022-12-18T07:59:42;19.50;;;7.73;;
18082;SDS011;9168;51.194;6.840;2022-12-18T08:02:09;20.63;;;8.33;;
18082;SDS011;9168;51.194;6.840;2022-12-18T08:04:36;17.93;;;8.27;;
18082;SDS011;9168;51.194;6.840;2022-12-18T08:07:03;18.67;;;8.07;;
18082;SDS011;9168;51.194;6.840;2022-12-18T08:09:30;20.87;;;8.50;;
18082;SDS011;9168;51.194;6.840;2022-12-18T08:11:56;20.47;;;9.10;;
18082;SDS011;9168;51.194;6.840;2022-12-18T08:14:23;21.50;;;8.27;;
18082;SDS011;9168;51.194;6.840;2022-12-18T08:16:52;21.53;;;9.20;;
18082;SDS011;9168;51.194;6.840;2022-12-18T08:19:19;21.07;;;9.13;;
18082;SDS011;9168;51.194;6.840;2022-12-18T08:21:46;20.93;;;8.67;;
18082;SDS011;9168;51.194;6.840;2022-12-18T08:24:13;22.67;;;9.40;;
18082;SDS011;9168;51.194;6.840;2022-12-18T08:26:40;24.60;;;9.57;;
18082;SDS011;9168;51.194;6.840;2022-12-18T08:29:07;20.23;;;8.93;;
18082;SDS011;9168;51.194;6.840;2022-12-18T08:31:34;25.00;;;10.10;;
18082;SDS011;9168;51.194;6.840;2022-12-18T08:34:02;20.03;;;8.83;;
18082;SDS011;9168;51.194;6.840;2022-12-18T08:36:29;25.17;;;8.20;;
18082;SDS011;9168;51.194;6.840;2022-12-18T08:38:56;22.37;;;9.60;;
18082;SDS011;9168;51.194;6.840;2022-12-18T08:41:23;20.17;;;8.80;;
18082;SDS011;9168;51.194;6.840;2022-12-18T08:43:51;20.20;;;8.23;;
18082;SDS011;9168;51.194;6.840;2022-12-18T08:46:36;18.43;;;8.50;;
18082;SDS011;9168;51.194;6.840;2022-12-18T08:49:06;24.97;;;9.57;;
18082;SDS011;9168;51.194;6.840;2022-12-18T08:51:34;21.87;;;9.00;;
18082;SDS011;9168;51.194;6.840;2022-12-18T08:54:01;26.00;;;9.20;;
18082;SDS011;9168;51.194;6.840;2022-12-18T08:56:28;19.43;;;8.70;;
18082;SDS011;9168;51.194;6.840;2022-12-18T08:58:56;17.73;;;8.37;;
18082;SDS011;9168;51.194;6.840;2022-12-18T09:01:23;21.80;;;9.37;;
18082;SDS011;9168;51.194;6.840;2022-12-18T09:03:50;21.73;;;8.97;;
18082;SDS011;9168;51.194;6.840;2022-12-18T09:06:19;24.63;;;9.43;;
18082;SDS011;9168;51.194;6.840;2022-12-18T09:08:47;22.40;;;8.97;;
18082;SDS011;9168;51.194;6.840;2022-12-18T09:11:15;19.83;;;8.77;;
18082;SDS011;9168;51.194;6.840;2022-12-18T09:13:45;18.67;;;8.57;;
18082;SDS011;9168;51.194;6.840;2022-12-18T09:16:12;25.47;;;10.03;;
18082;SDS011;9168;51.194;6.840;2022-12-18T09:18:39;18.13;;;8.40;;
18082;SDS011;9168;51.194;6.840;2022-12-18T09:21:09;21.23;;;9.40;;
18082;SDS011;9168;51.194;6.840;2022-12-18T09:23:39;22.77;;;9.33;;
18082;SDS011;9168;51.194;6.840;2022-12-18T09:26:06;21.93;;;10.27;;
18082;SDS011;9168;51.194;6.840;2022-12-18T09:28:33;21.10;;;9.97;;
18082;SDS011;9168;51.194;6.840;2022-12-18T09:31:04;23.23;;;9.47;;
18082;SDS011;9168;51.194;6.840;2022-12-18T09:33:32;24.17;;;10.53;;
18082;SDS011;9168;51.194;6.840;2022-12-18T09:36:00;24.70;;;9.73;;
18082;SDS011;9168;51.194;6.840;2022-12-18T09:38:29;21.90;;;10.27;;
18082;SDS011;9168;51.194;6.840;2022-12-18T09:40:57;22.03;;;9.00;;
18082;SDS011;9168;51.194;6.840;2022-12-18T09:43:30;22.60;;;9.60;;
18082;SDS011;9168;51.194;6.840;2022-12-18T09:46:06;17.63;;;8.57;;
18082;SDS011;9168;51.194;6.840;2022-12-18T09:48:36;20.43;;;8.90;;
18082;SDS011;9168;51.194;6.840;2022-12-18T09:51:10;20.50;;;9.00;;
18082;SDS011;9168;51.194;6.840;2022-12-18T09:53:42;22.13;;;10.47;;
18082;SDS011;9168;51.194;6.840;2022-12-18T09:56:16;22.43;;;9.43;;
18082;SDS011;9168;51.194;6.840;2022-12-18T09:58:45;20.93;;;9.60;;
18082;SDS011;9168;51.194;6.840;2022-12-18T10:01:18;22.47;;;9.57;;
18082;SDS011;9168;51.194;6.840;2022-12-18T10:03:49;22.13;;;9.30;;
18082;SDS011;9168;51.194;6.840;2022-12-18T10:06:18;20.30;;;9.60;;
18082;SDS011;9168;51.194;6.840;2022-12-18T10:08:53;21.37;;;9.00;;
18082;SDS011;9168;51.194;6.840;2022-12-18T10:11:34;20.73;;;9.67;;
18082;SDS011;9168;51.194;6.840;2022-12-18T10:14:10;23.03;;;9.33;;
18082;SDS011;9168;51.194;6.840;2022-12-18T10:16:47;22.20;;;9.57;;
18082;SDS011;9168;51.194;6.840;2022-12-18T10:22:26;27.13;;;10.80;;
18082;SDS011;9168;51.194;6.840;2022-12-18T10:25:03;23.57;;;10.23;;
18082;SDS011;9168;51.194;6.840;2022-12-18T10:27:42;20.87;;;9.07;;
18082;SDS011;9168;51.194;6.840;2022-12-18T10:30:12;25.63;;;10.23;;
18082;SDS011;9168;51.194;6.840;2022-12-18T10:32:41;20.43;;;8.87;;
18082;SDS011;9168;51.194;6.840;2022-12-18T10:35:09;25.90;;;9.47;;
18082;SDS011;9168;51.194;6.840;2022-12-18T10:40:26;23.63;;;9.27;;
18082;SDS011;9168;51.194;6.840;2022-12-18T10:43:04;19.60;;;8.70;;
18082;SDS011;9168;51.194;6.840;2022-12-18T10:45:36;22.97;;;9.03;;
18082;SDS011;9168;51.194;6.840;2022-12-18T10:48:03;20.13;;;9.33;;
18082;SDS011;9168;51.194;6.840;2022-12-18T10:50:31;21.80;;;9.40;;
18082;SDS011;9168;51.194;6.840;2022-12-18T10:53:00;21.27;;;9.00;;
18082;SDS011;9168;51.194;6.840;2022-12-18T10:55:31;24.13;;;9.00;;
18082;SDS011;9168;51.194;6.840;2022-12-18T10:58:15;27.37;;;8.30;;
18082;SDS011;9168;51.194;6.840;2022-12-18T11:00:51;19.93;;;8.03;;
18082;SDS011;9168;51.194;6.840;2022-12-18T11:03:32;19.67;;;8.40;;
18082;SDS011;9168;51.194;6.840;2022-12-18T11:06:02;21.07;;;9.13;;
18082;SDS011;9168;51.194;6.840;2022-12-18T11:08:31;21.47;;;8.03;;
18082;SDS011;9168;51.194;6.840;2022-12-18T11:10:58;20.50;;;9.10;;
18082;SDS011;9168;51.194;6.840;2022-12-18T11:13:27;28.70;;;9.33;;
18082;SDS011;9168;51.194;6.840;2022-12-18T11:15:56;22.10;;;8.67;;
18082;SDS011;9168;51.194;6.840;2022-12-18T11:18:25;30.10;;;8.73;;
18082;SDS011;9168;51.194;6.840;2022-12-18T11:20:55;20.20;;;8.67;;
18082;SDS011;9168;51.194;6.840;2022-12-18T11:23:24;23.50;;;9.33;;
18082;SDS011;9168;51.194;6.840;2022-12-18T11:25:53;30.77;;;9.20;;
18082;SDS011;9168;51.194;6.840;2022-12-18T11:28:28;20.77;;;8.97;;
18082;SDS011;9168;51.194;6.840;2022-12-18T11:31:11;21.97;;;9.73;;
18082;SDS011;9168;51.194;6.840;2022-12-18T11:33:47;24.60;;;9.17;;
18082;SDS011;9168;51.194;6.840;2022-12-18T11:36:28;25.37;;;9.20;;
18082;SDS011;9168;51.194;6.840;2022-12-18T11:38:59;23.53;;;9.27;;
18082;SDS011;9168;51.194;6.840;2022-12-18T11:41:29;29.50;;;9.40;;
18082;SDS011;9168;51.194;6.840;2022-12-18T11:44:20;22.53;;;9.80;;
18082;SDS011;9168;51.194;6.840;2022-12-18T11:46:53;22.83;;;9.57;;
18082;SDS011;9168;51.194;6.840;2022-12-18T11:49:26;28.13;;;10.20;;
18082;SDS011;9168;51.194;6.840;2022-12-18T11:52:00;22.80;;;9.87;;
18082;SDS011;9168;51.194;6.840;2022-12-18T11:54:31;27.57;;;10.20;;
18082;SDS011;9168;51.194;6.840;2022-12-18T11:56:58;21.70;;;10.63;;
18082;SDS011;9168;51.194;6.840;2022-12-18T11:59:37;22.30;;;9.70;;
18082;SDS011;9168;51.194;6.840;2022-12-18T12:02:19;25.17;;;11.23;;
18082;SDS011;9168;51.194;6.840;2022-12-18T12:05:00;32.43;;;10.60;;
18082;SDS011;9168;51.194;6.840;2022-12-18T12:07:41;26.40;;;11.80;;
18082;SDS011;9168;51.194;6.840;2022-12-18T12:10:20;25.37;;;11.93;;
18082;SDS011;9168;51.194;6.840;2022-12-18T12:13:00;29.30;;;11.20;;
18082;SDS011;9168;51.194;6.840;2022-12-18T12:15:44;30.40;;;11.43;;
18082;SDS011;9168;51.194;6.840;2022-12-18T12:18:26;24.83;;;12.37;;
18082;SDS011;9168;51.194;6.840;2022-12-18T12:21:02;37.23;;;16.43;;
18082;SDS011;9168;51.194;6.840;2022-12-18T12:23:36;24.30;;;12.13;;
18082;SDS011;9168;51.194;6.840;2022-12-18T12:26:09;30.20;;;13.00;;
18082;SDS011;9168;51.194;6.840;2022-12-18T12:28:45;24.80;;;11.77;;
18082;SDS011;9168;51.194;6.840;2022-12-18T12:31:27;26.73;;;11.23;;
18082;SDS011;9168;51.194;6.840;2022-12-18T12:34:16;29.90;;;12.23;;
18082;SDS011;9168;51.194;6.840;2022-12-18T12:36:52;22.50;;;10.70;;
18082;SDS011;9168;51.194;6.840;2022-12-18T12:39:30;30.33;;;12.23;;
18082;SDS011;9168;51.194;6.840;2022-12-18T12:41:59;24.87;;;11.80;;
18082;SDS011;9168;51.194;6.840;2022-12-18T12:44:46;32.63;;;12.47;;
18082;SDS011;9168;51.194;6.840;2022-12-18T12:47:19;26.10;;;12.50;;
18082;SDS011;9168;51.194;6.840;2022-12-18T12:49:48;31.07;;;13.07;;
18082;SDS011;9168;51.194;6.840;2022-12-18T12:52:18;30.57;;;12.10;;
18082;SDS011;9168;51.194;6.840;2022-12-18T12:54:53;30.00;;;12.40;;
18082;SDS011;9168;51.194;6.840;2022-12-18T12:57:21;37.47;;;12.90;;
18082;SDS011;9168;51.194;6.840;2022-12-18T12:59:56;29.63;;;12.03;;
18082;SDS011;9168;51.194;6.840;2022-12-18T13:02:33;29.23;;;12.83;;
18082;SDS011;9168;51.194;6.840;2022-12-18T13:05:06;28.27;;;12.93;;
18082;SDS011;9168;51.194;6.840;2022-12-18T13:07:45;37.90;;;13.80;;
18082;SDS011;9168;51.194;6.840;2022-12-18T13:10:23;27.47;;;13.57;;
18082;SDS011;9168;51.194;6.840;2022-12-18T13:13:09;38.00;;;13.70;;
18082;SDS011;9168;51.194;6.840;2022-12-18T13:15:38;36.50;;;14.07;;
18082;SDS011;9168;51.194;6.840;2022-12-18T13:18:19;34.50;;;12.97;;
18082;SDS011;9168;51.194;6.840;2022-12-18T13:20:48;31.33;;;13.20;;
18082;SDS011;9168;51.194;6.840;2022-12-18T13:28:58;33.80;;;15.23;;
18082;SDS011;9168;51.194;6.840;2022-12-18T13:34:35;42.50;;;15.20;;
18082;SDS011;9168;51.194;6.840;2022-12-18T13:43:22;31.27;;;12.50;;
18082;SDS011;9168;51.194;6.840;2022-12-18T13:45:59;41.13;;;14.20;;
18082;SDS011;9168;51.194;6.840;2022-12-18T13:48:29;50.63;;;13.60;;
18082;SDS011;9168;51.194;6.840;2022-12-18T13:51:01;28.43;;;13.33;;
18082;SDS011;9168;51.194;6.840;2022-12-18T13:53:32;33.60;;;13.93;;
18082;SDS011;9168;51.194;6.840;2022-12-18T13:56:04;43.30;;;14.43;;
18082;SDS011;9168;51.194;6.840;2022-12-18T13:58:31;35.77;;;14.10;;
18082;SDS011;9168;51.194;6.840;2022-12-18T14:00:58;32.77;;;14.10;;
18082;SDS011;9168;51.194;6.840;2022-12-18T14:03:27;35.30;;;14.67;;
18082;SDS011;9168;51.194;6.840;2022-12-18T14:05:56;46.07;;;14.37;;
18082;SDS011;9168;51.194;6.840;2022-12-18T14:08:30;33.30;;;13.70;;
18082;SDS011;9168;51.194;6.840;2022-12-18T14:11:01;31.13;;;14.50;;
18082;SDS011;9168;51.194;6.840;2022-12-18T14:13:32;45.23;;;19.27;;
18082;SDS011;9168;51.194;6.840;2022-12-18T14:16:03;42.77;;;17.57;;
18082;SDS011;9168;51.194;6.840;2022-12-18T14:18:33;38.60;;;14.67;;
18082;SDS011;9168;51.194;6.840;2022-12-18T14:21:13;31.27;;;14.17;;
18082;SDS011;9168;51.194;6.840;2022-12-18T14:23:47;32.87;;;14.17;;
18082;SDS011;9168;51.194;6.840;2022-12-18T14:26:22;33.23;;;14.47;;
18082;SDS011;9168;51.194;6.840;2022-12-18T14:28:52;31.57;;;14.60;;
18082;SDS011;9168;51.194;6.840;2022-12-18T14:31:21;41.30;;;15.27;;
18082;SDS011;9168;51.194;6.840;2022-12-18T14:33:50;31.80;;;14.37;;
18082;SDS011;9168;51.194;6.840;2022-12-18T14:36:20;36.87;;;16.17;;
18082;SDS011;9168;51.194;6.840;2022-12-18T14:38:49;36.93;;;15.03;;
18082;SDS011;9168;51.194;6.840;2022-12-18T14:41:19;39.17;;;15.70;;
18082;SDS011;9168;51.194;6.840;2022-12-18T14:43:47;40.63;;;15.13;;
18082;SDS011;9168;51.194;6.840;2022-12-18T14:46:29;29.57;;;14.93;;
18082;SDS011;9168;51.194;6.840;2022-12-18T14:49:01;33.53;;;14.93;;
18082;SDS011;9168;51.194;6.840;2022-12-18T14:51:31;36.77;;;15.23;;
18082;SDS011;9168;51.194;6.840;2022-12-18T14:54:00;36.40;;;14.90;;
18082;SDS011;9168;51.194;6.840;2022-12-18T14:56:29;41.60;;;15.13;;
18082;SDS011;9168;51.194;6.840;2022-12-18T14:58:57;32.60;;;14.50;;
18082;SDS011;9168;51.194;6.840;2022-12-18T15:01:27;38.40;;;15.87;;
18082;SDS011;9168;51.194;6.840;2022-12-18T15:03:56;34.17;;;15.43;;
18082;SDS011;9168;51.194;6.840;2022-12-18T15:06:25;34.10;;;15.97;;
18082;SDS011;9168;51.194;6.840;2022-12-18T15:08:56;48.63;;;16.47;;
18082;SDS011;9168;51.194;6.840;2022-12-18T15:11:28;43.97;;;15.97;;
18082;SDS011;9168;51.194;6.840;2022-12-18T15:14:22;43.67;;;16.47;;
18082;SDS011;9168;51.194;6.840;2022-12-18T15:16:51;38.57;;;16.40;;
18082;SDS011;9168;51.194;6.840;2022-12-18T15:19:20;36.77;;;17.30;;
18082;SDS011;9168;51.194;6.840;2022-12-18T15:21:50;39.80;;;16.27;;
18082;SDS011;9168;51.194;6.840;2022-12-18T15:24:19;41.67;;;16.50;;
18082;SDS011;9168;51.194;6.840;2022-12-18T15:26:50;46.83;;;16.83;;